createdAt,value
2018-08-22T00:01:17.417Z,1.62
2018-08-22T00:03:52.326Z,2.75
2018-08-22T00:06:27.403Z,2.20
2018-08-22T00:09:02.371Z,2.45
2018-08-22T00:11:37.243Z,1.80
2018-08-22T00:14:12.267Z,1.67
2018-08-22T00:16:46.983Z,1.98
2018-08-22T00:19:21.701Z,1.80
2018-08-22T00:21:56.563Z,1.90
2018-08-22T00:24:31.466Z,2.12
2018-08-22T00:27:06.328Z,2.15
2018-08-22T00:29:41.180Z,2.40
2018-08-22T00:32:16.154Z,1.90
2018-08-22T00:34:51.078Z,1.87
2018-08-22T00:37:26.024Z,1.92
2018-08-22T00:40:01.062Z,2.10
2018-08-22T00:42:35.922Z,1.82
2018-08-22T00:45:10.739Z,2.20
2018-08-22T00:47:45.527Z,2.10
2018-08-22T00:50:20.281Z,1.67
2018-08-22T00:52:54.999Z,2.98
2018-08-22T00:55:29.630Z,1.47
2018-08-22T00:58:04.347Z,2.05
2018-08-22T01:00:39.064Z,1.50
2018-08-22T01:03:13.870Z,1.82
2018-08-22T01:05:48.602Z,1.60
2018-08-22T01:08:23.402Z,2.12
2018-08-22T01:10:58.426Z,2.27
2018-08-22T01:13:33.643Z,2.00
2018-08-22T01:16:08.615Z,1.75
2018-08-22T01:18:43.556Z,1.75
2018-08-22T01:21:18.420Z,1.85
2018-08-22T01:23:53.208Z,2.05
2018-08-22T01:26:28.066Z,2.37
2018-08-22T01:29:02.887Z,1.80
2018-08-22T01:31:37.725Z,2.02
2018-08-22T01:34:12.454Z,1.65
2018-08-22T01:36:47.292Z,2.12
2018-08-22T01:39:22.221Z,2.02
2018-08-22T01:41:57.302Z,1.98
2018-08-22T01:44:32.055Z,1.90
2018-08-22T01:47:06.795Z,2.05
2018-08-22T01:49:41.780Z,2.10
2018-08-22T01:52:16.722Z,1.90
2018-08-22T01:54:51.560Z,1.90
2018-08-22T01:57:26.407Z,1.90
2018-08-22T02:00:01.624Z,1.47
2018-08-22T02:02:36.800Z,2.15
2018-08-22T02:05:11.752Z,1.87
2018-08-22T02:07:46.563Z,1.90
2018-08-22T02:10:21.354Z,2.00
2018-08-22T02:12:56.335Z,1.70
2018-08-22T02:15:31.195Z,2.60
2018-08-22T02:18:06.132Z,2.50
2018-08-22T02:20:40.876Z,1.85
2018-08-22T02:23:15.863Z,2.02
2018-08-22T02:25:50.611Z,2.50
2018-08-22T02:28:25.340Z,2.52
2018-08-22T02:31:00.305Z,2.05
2018-08-22T02:33:35.468Z,2.05
2018-08-22T02:36:10.532Z,2.27
2018-08-22T02:38:45.539Z,3.02
2018-08-22T02:41:20.167Z,2.35
2018-08-22T02:43:55.359Z,2.22
2018-08-22T02:46:30.283Z,2.20
2018-08-22T02:49:05.153Z,2.42
2018-08-22T02:51:39.913Z,2.10
2018-08-22T02:54:14.622Z,2.60
2018-08-22T02:56:49.513Z,2.58
2018-08-22T02:59:24.487Z,2.65
2018-08-22T03:01:59.408Z,2.02
2018-08-22T03:04:34.468Z,2.50
2018-08-22T03:07:09.379Z,2.42
2018-08-22T03:09:44.196Z,2.10
2018-08-22T03:12:19.136Z,2.60
2018-08-22T03:14:53.925Z,2.50
2018-08-22T03:17:28.903Z,3.22
2018-08-22T03:20:03.783Z,2.90
2018-08-22T03:22:38.637Z,2.65
2018-08-22T03:25:13.454Z,2.90
2018-08-22T03:27:48.543Z,2.52
2018-08-22T03:30:23.276Z,3.02
2018-08-22T03:32:58.250Z,2.47
2018-08-22T03:35:33.156Z,2.45
2018-08-22T03:38:07.992Z,2.60
2018-08-22T03:40:42.731Z,2.47
2018-08-22T03:43:17.355Z,2.40
2018-08-22T03:45:52.044Z,2.62
2018-08-22T03:48:26.784Z,3.30
2018-08-22T03:51:01.691Z,2.30
2018-08-22T03:53:36.896Z,2.35
2018-08-22T03:56:11.807Z,2.52
2018-08-22T03:58:46.623Z,1.90
2018-08-22T04:01:21.460Z,2.27
2018-08-22T04:03:56.250Z,2.22
2018-08-22T04:06:30.972Z,2.83
2018-08-22T04:09:07.142Z,2.10
2018-08-22T04:11:41.848Z,2.17
2018-08-22T04:14:16.675Z,2.08
2018-08-22T04:16:51.512Z,1.90
2018-08-22T04:19:26.404Z,2.15
2018-08-22T04:22:01.289Z,2.40
2018-08-22T04:24:36.120Z,2.55
2018-08-22T04:27:11.305Z,2.25
2018-08-22T04:29:46.419Z,2.17
2018-08-22T04:32:21.281Z,2.25
2018-08-22T04:34:56.203Z,2.37
2018-08-22T04:37:31.057Z,2.35
2018-08-22T04:40:06.011Z,2.05
2018-08-22T04:42:40.840Z,2.60
2018-08-22T04:45:15.468Z,1.90
2018-08-22T04:47:50.366Z,2.90
2018-08-22T04:50:25.371Z,1.80
2018-08-22T04:53:00.316Z,2.42
2018-08-22T04:55:34.950Z,2.12
2018-08-22T04:58:09.900Z,1.98
2018-08-22T05:00:44.748Z,1.60
2018-08-22T05:03:19.560Z,2.30
2018-08-22T05:05:54.306Z,2.50
2018-08-22T05:08:29.039Z,2.30
2018-08-22T05:11:03.830Z,1.70
2018-08-22T05:13:38.702Z,1.70
2018-08-22T05:16:13.575Z,1.90
2018-08-22T05:18:48.879Z,1.70
2018-08-22T05:21:23.715Z,2.52
2018-08-22T05:23:58.539Z,1.90
2018-08-22T05:26:33.674Z,1.60
2018-08-22T05:29:08.283Z,1.87
2018-08-22T05:31:42.861Z,2.20
2018-08-22T05:34:17.920Z,2.35
2018-08-22T05:36:52.861Z,2.37
2018-08-22T05:39:28.004Z,1.87
2018-08-22T05:42:03.119Z,1.98
2018-08-22T05:44:38.191Z,1.90
2018-08-22T05:47:13.024Z,2.05
2018-08-22T05:49:47.895Z,1.80
2018-08-22T05:52:22.731Z,1.82
2018-08-22T05:54:57.468Z,1.90
2018-08-22T05:57:32.288Z,1.82
2018-08-22T06:00:07.344Z,2.17
2018-08-22T06:02:42.419Z,1.98
2018-08-22T06:05:17.452Z,1.97
2018-08-22T06:07:52.305Z,1.93
2018-08-22T06:10:27.220Z,1.73
2018-08-22T06:13:02.056Z,1.83
2018-08-22T06:15:36.984Z,1.57
2018-08-22T06:18:11.690Z,1.40
2018-08-22T06:20:46.460Z,1.40
2018-08-22T06:23:21.183Z,1.43
2018-08-22T06:25:55.844Z,1.30
2018-08-22T06:28:30.843Z,1.63
2018-08-22T06:31:05.616Z,1.40
2018-08-22T06:33:40.385Z,1.60
2018-08-22T06:36:15.482Z,1.80
2018-08-22T06:38:50.443Z,1.63
2018-08-22T06:41:25.293Z,2.10
2018-08-22T06:44:00.393Z,1.87
2018-08-22T06:46:35.164Z,1.60
2018-08-22T06:49:10.368Z,2.40
2018-08-22T06:51:45.419Z,1.80
2018-08-22T06:54:20.170Z,1.60
2018-08-22T06:56:55.036Z,1.70
2018-08-22T06:59:30.111Z,1.97
2018-08-22T07:02:04.940Z,1.43
2018-08-22T07:04:39.664Z,1.60
2018-08-22T07:07:14.348Z,2.00
2018-08-22T07:09:49.061Z,2.00
2018-08-22T07:12:24.020Z,1.80
2018-08-22T07:14:58.743Z,1.70
2018-08-22T07:17:33.512Z,1.70
2018-08-22T07:20:08.368Z,2.40
2018-08-22T07:22:47.518Z,1.50
2018-08-22T07:25:23.775Z,2.87
2018-08-22T07:28:03.804Z,2.00
2018-08-22T07:30:41.600Z,1.80
2018-08-22T07:33:16.668Z,2.00
2018-08-22T07:35:51.587Z,1.50
2018-08-22T07:38:26.705Z,1.70
2018-08-22T07:41:01.668Z,2.00
2018-08-22T07:43:36.307Z,1.67
2018-08-22T07:46:11.173Z,1.90
2018-08-22T07:48:45.889Z,1.27
2018-08-22T07:51:20.948Z,1.83
2018-08-22T07:53:56.070Z,1.67
2018-08-22T07:56:30.960Z,1.77
2018-08-22T07:59:14.298Z,1.87
2018-08-22T08:01:49.238Z,1.50
2018-08-22T08:04:24.207Z,1.30
2018-08-22T08:06:59.079Z,1.83
2018-08-22T08:09:33.935Z,1.60
2018-08-22T08:12:08.871Z,1.47
2018-08-22T08:14:47.891Z,2.10
2018-08-22T08:17:22.631Z,1.70
2018-08-22T08:19:57.374Z,1.60
2018-08-22T08:22:32.564Z,1.60
2018-08-22T08:25:07.456Z,1.63
2018-08-22T08:27:42.453Z,1.70
2018-08-22T08:30:17.405Z,2.13
2018-08-22T08:32:52.404Z,1.70
2018-08-22T08:35:27.360Z,1.27
2018-08-22T08:38:02.244Z,1.50
2018-08-22T08:40:37.065Z,1.60
2018-08-22T08:43:11.964Z,2.37
2018-08-22T08:45:47.040Z,1.53
2018-08-22T08:48:21.923Z,1.63
2018-08-22T08:50:56.764Z,2.07
2018-08-22T08:53:31.999Z,1.60
2018-08-22T08:56:06.759Z,1.57
2018-08-22T08:58:41.826Z,1.70
2018-08-22T09:01:16.764Z,1.60
2018-08-22T09:03:51.903Z,1.73
2018-08-22T09:06:26.946Z,2.30
2018-08-22T09:09:01.617Z,1.87
2018-08-22T09:11:40.372Z,1.80
2018-08-22T09:14:15.467Z,1.50
2018-08-22T09:16:50.281Z,2.43
2018-08-22T09:19:25.160Z,2.07
2018-08-22T09:21:59.912Z,1.80
2018-08-22T09:24:34.914Z,1.60
2018-08-22T09:27:09.935Z,2.03
2018-08-22T09:29:45.036Z,1.70
2018-08-22T09:32:19.664Z,1.33
2018-08-22T09:34:54.441Z,1.73
2018-08-22T09:37:29.211Z,1.87
2018-08-22T09:40:04.245Z,1.97
2018-08-22T09:42:39.197Z,1.70
2018-08-22T09:45:13.845Z,1.90
2018-08-22T09:47:48.744Z,1.80
2018-08-22T09:50:23.463Z,1.70
2018-08-22T09:52:58.351Z,1.40
2018-08-22T09:55:33.212Z,1.60
2018-08-22T09:58:07.887Z,1.57
2018-08-22T10:00:47.885Z,1.70
2018-08-22T10:03:22.806Z,1.40
2018-08-22T10:05:57.901Z,1.87
2018-08-22T10:08:32.927Z,1.50
2018-08-22T10:11:08.285Z,1.97
2018-08-22T10:13:43.209Z,1.70
2018-08-22T10:16:18.169Z,1.60
2018-08-22T10:18:53.612Z,1.77
2018-08-22T10:21:28.292Z,2.73
2018-08-22T10:24:03.007Z,1.63
2018-08-22T10:26:37.974Z,1.53
2018-08-22T10:29:12.968Z,1.63
2018-08-22T10:31:47.851Z,1.77
2018-08-22T10:34:22.648Z,1.53
2018-08-22T10:36:57.511Z,1.63
2018-08-22T10:39:32.400Z,1.97
2018-08-22T10:42:07.242Z,1.70
2018-08-22T10:44:41.933Z,1.40
2018-08-22T10:47:16.756Z,1.80
2018-08-22T10:49:51.588Z,1.60
2018-08-22T10:52:26.475Z,2.03
2018-08-22T10:55:01.280Z,1.40
2018-08-22T10:57:36.203Z,1.60
2018-08-22T11:00:10.988Z,1.70
2018-08-22T11:02:45.872Z,1.47
2018-08-22T11:05:20.620Z,1.87
2018-08-22T11:07:55.249Z,1.57
2018-08-22T11:10:30.082Z,1.50
2018-08-22T11:13:05.417Z,1.90
2018-08-22T11:15:40.264Z,1.30
2018-08-22T11:18:16.559Z,1.60
2018-08-22T11:20:52.080Z,1.60
2018-08-22T11:23:38.392Z,2.93
2018-08-22T11:26:24.186Z,1.70
2018-08-22T11:29:10.070Z,1.43
2018-08-22T11:31:55.844Z,1.40
2018-08-22T11:34:41.740Z,1.47
2018-08-22T11:37:17.463Z,5.20
2018-08-22T11:39:52.699Z,1.60
2018-08-22T11:42:27.437Z,8.60
2018-08-22T11:45:02.561Z,1.90
2018-08-22T11:47:37.370Z,2.33
2018-08-22T11:50:12.208Z,1.30
2018-08-22T11:52:49.160Z,3.67
2018-08-22T11:55:24.030Z,2.90
2018-08-22T11:57:59.234Z,1.30
2018-08-22T12:00:34.362Z,1.30
2018-08-22T12:03:09.161Z,1.67
2018-08-22T12:05:44.079Z,1.73
2018-08-22T12:08:18.990Z,1.37
2018-08-22T12:10:54.609Z,1.80
2018-08-22T12:13:29.359Z,1.27
2018-08-22T12:16:04.246Z,1.70
2018-08-22T12:18:39.416Z,1.50
2018-08-22T12:21:14.135Z,1.60
2018-08-22T12:23:48.760Z,1.70
2018-08-22T12:26:23.770Z,1.60
2018-08-22T12:28:58.764Z,1.37
2018-08-22T12:31:34.180Z,1.77
2018-08-22T12:34:09.280Z,1.40
2018-08-22T12:36:43.916Z,16.93
2018-08-22T12:39:18.962Z,3.93
2018-08-22T12:41:53.817Z,1.80
2018-08-22T12:44:28.655Z,1.20
2018-08-22T12:47:03.708Z,1.60
2018-08-22T12:49:38.833Z,1.40
2018-08-22T12:52:13.543Z,1.10
2018-08-22T12:54:48.826Z,1.10
2018-08-22T12:57:24.033Z,1.10
2018-08-22T12:59:58.823Z,0.90
2018-08-22T13:02:33.687Z,1.10
2018-08-22T13:05:08.855Z,1.00
2018-08-22T13:07:43.637Z,1.10
2018-08-22T13:10:18.884Z,1.17
2018-08-22T13:12:53.781Z,1.50
2018-08-22T13:15:28.849Z,1.07
2018-08-22T13:18:03.852Z,1.30
2018-08-22T13:20:38.967Z,1.20
2018-08-22T13:23:13.968Z,1.50
2018-08-22T13:25:48.959Z,1.27
2018-08-22T13:28:24.002Z,1.20
2018-08-22T13:30:59.081Z,1.20
2018-08-22T13:33:34.172Z,1.30
2018-08-22T13:36:09.156Z,1.30
2018-08-22T13:38:44.259Z,1.30
2018-08-22T13:41:19.482Z,1.17
2018-08-22T13:43:54.532Z,1.23
2018-08-22T13:46:29.645Z,1.20
2018-08-22T13:49:04.400Z,1.30
2018-08-22T13:51:39.361Z,1.30
2018-08-22T13:54:14.560Z,1.50
2018-08-22T13:56:49.453Z,1.33
2018-08-22T13:59:24.250Z,1.73
2018-08-22T14:01:59.369Z,1.60
2018-08-22T14:04:34.234Z,1.67
2018-08-22T14:07:09.165Z,1.30
2018-08-22T14:09:44.209Z,1.83
2018-08-22T14:12:19.095Z,1.70
2018-08-22T14:14:53.935Z,1.67
2018-08-22T14:17:28.739Z,1.97
2018-08-22T14:20:03.569Z,1.90
2018-08-22T14:22:38.340Z,1.60
2018-08-22T14:25:13.217Z,1.80
2018-08-22T14:27:48.107Z,2.10
2018-08-22T14:30:23.138Z,1.70
2018-08-22T14:32:58.044Z,1.70
2018-08-22T14:35:32.985Z,1.80
2018-08-22T14:38:07.746Z,2.07
2018-08-22T14:40:42.607Z,1.80
2018-08-22T14:43:17.436Z,1.80
2018-08-22T14:45:52.319Z,2.10
2018-08-22T14:48:27.207Z,1.70
2018-08-22T14:51:02.174Z,2.20
2018-08-22T14:53:37.174Z,1.70
2018-08-22T14:56:12.142Z,2.23
2018-08-22T14:58:46.968Z,2.03
2018-08-22T15:01:21.707Z,1.90
2018-08-22T15:03:56.926Z,1.73
2018-08-22T15:06:32.032Z,2.27
2018-08-22T15:09:12.594Z,1.90
2018-08-22T15:11:47.623Z,2.03
2018-08-22T15:14:22.697Z,1.93
2018-08-22T15:16:57.746Z,2.50
2018-08-22T15:19:32.840Z,1.97
2018-08-22T15:22:08.033Z,1.80
2018-08-22T15:24:43.023Z,7.00
2018-08-22T15:27:18.132Z,13.47
2018-08-22T15:29:53.223Z,21.20
2018-08-22T15:32:28.191Z,34.93
2018-08-22T15:35:03.099Z,2.40
2018-08-22T15:37:37.986Z,2.57
2018-08-22T15:40:12.809Z,2.70
2018-08-22T15:42:47.755Z,2.80
2018-08-22T15:45:22.928Z,4.80
2018-08-22T15:47:57.672Z,2.10
2018-08-22T15:50:33.275Z,17.23
2018-08-22T15:53:08.353Z,4.60
2018-08-22T15:55:43.449Z,3.67
2018-08-22T15:58:18.448Z,3.10
2018-08-22T16:00:54.318Z,2.13
2018-08-22T16:03:29.427Z,2.50
2018-08-22T16:06:04.311Z,2.10
2018-08-22T16:08:39.083Z,4.03
2018-08-22T16:11:14.097Z,3.27
2018-08-22T16:13:49.464Z,2.33
2018-08-22T16:16:24.652Z,2.80
2018-08-22T16:19:00.027Z,2.27
2018-08-22T16:21:37.335Z,3.33
2018-08-22T16:24:12.264Z,1.90
2018-08-22T16:26:46.948Z,2.20
2018-08-22T16:29:21.652Z,2.37
2018-08-22T16:31:56.687Z,1.90
2018-08-22T16:34:31.576Z,2.03
2018-08-22T16:37:07.442Z,1.60
2018-08-22T16:39:44.487Z,2.50
2018-08-22T16:42:24.091Z,2.73
2018-08-22T16:44:59.528Z,2.23
2018-08-22T16:47:35.985Z,2.00
2018-08-22T16:50:11.128Z,2.07
2018-08-22T16:52:46.529Z,2.03
2018-08-22T16:55:22.812Z,1.70
2018-08-22T16:57:57.992Z,2.10
2018-08-22T17:00:38.512Z,1.80
2018-08-22T17:03:13.711Z,2.10
2018-08-22T17:05:48.941Z,2.17
2018-08-22T17:08:24.352Z,2.47
2018-08-22T17:11:01.638Z,2.47
2018-08-22T17:13:50.268Z,2.10
2018-08-22T17:16:25.888Z,2.37
2018-08-22T17:19:00.645Z,2.27
2018-08-22T17:21:35.817Z,2.50
2018-08-22T17:24:10.660Z,2.10
2018-08-22T17:26:45.525Z,2.13
2018-08-22T17:29:20.436Z,2.27
2018-08-22T17:32:05.149Z,2.30
2018-08-22T17:34:40.125Z,2.53
2018-08-22T17:37:15.216Z,2.80
2018-08-22T17:39:50.051Z,2.50
2018-08-22T17:42:25.240Z,2.67
2018-08-22T17:45:00.135Z,2.53
2018-08-22T17:47:35.229Z,2.87
2018-08-22T17:50:10.429Z,2.77
2018-08-22T17:52:45.316Z,2.13
2018-08-22T17:55:20.185Z,2.20
2018-08-22T17:57:55.045Z,2.57
2018-08-22T18:00:32.653Z,2.60
2018-08-22T18:03:07.758Z,3.07
2018-08-22T18:05:42.760Z,2.50
2018-08-22T18:08:17.767Z,2.37
2018-08-22T18:10:52.784Z,2.90
2018-08-22T18:13:28.461Z,2.53
2018-08-22T18:16:04.079Z,2.80
2018-08-22T18:18:39.293Z,2.93
2018-08-22T18:21:14.379Z,2.77
2018-08-22T18:23:53.236Z,2.30
2018-08-22T18:26:28.205Z,2.63
2018-08-22T18:29:03.087Z,1.97
2018-08-22T18:31:38.729Z,2.53
2018-08-22T18:34:13.485Z,2.67
2018-08-22T18:36:48.389Z,2.43
2018-08-22T18:39:23.372Z,2.30
2018-08-22T18:41:58.436Z,3.13
2018-08-22T18:44:33.615Z,2.23
2018-08-22T18:47:08.760Z,2.00
2018-08-22T18:49:44.164Z,2.37
2018-08-22T18:52:19.172Z,2.50
2018-08-22T18:54:54.337Z,2.60
2018-08-22T18:57:30.031Z,2.67
2018-08-22T19:00:07.764Z,2.27
2018-08-22T19:02:43.039Z,2.40
2018-08-22T19:05:25.993Z,2.77
2018-08-22T19:08:17.385Z,2.70
2018-08-22T19:10:52.345Z,2.20
2018-08-22T19:13:27.581Z,2.77
2018-08-22T19:16:05.586Z,2.20
2018-08-22T19:18:40.588Z,2.63
2018-08-22T19:21:15.724Z,2.47
2018-08-22T19:23:55.629Z,2.73
2018-08-22T19:26:30.797Z,2.53
2018-08-22T19:29:06.595Z,2.53
2018-08-22T19:31:47.610Z,2.83
2018-08-22T19:34:22.612Z,2.47
2018-08-22T19:36:57.526Z,3.70
2018-08-22T19:39:32.408Z,2.80
2018-08-22T19:42:07.149Z,2.60
2018-08-22T19:44:42.021Z,2.53
2018-08-22T19:47:17.076Z,3.10
2018-08-22T19:49:52.175Z,2.90
2018-08-22T19:52:27.039Z,3.30
2018-08-22T19:55:05.905Z,3.17
2018-08-22T19:57:42.188Z,2.97
2018-08-22T20:00:17.214Z,3.13
2018-08-22T20:02:51.967Z,2.77
2018-08-22T20:05:27.263Z,2.83
2018-08-22T20:08:02.033Z,2.50
2018-08-22T20:10:36.932Z,3.33
2018-08-22T20:13:11.910Z,2.10
2018-08-22T20:15:46.861Z,2.80
2018-08-22T20:18:22.103Z,3.00
2018-08-22T20:20:57.077Z,2.43
2018-08-22T20:23:32.280Z,3.00
2018-08-22T20:26:07.332Z,3.07
2018-08-22T20:28:46.470Z,3.27
2018-08-22T20:31:21.417Z,3.07
2018-08-22T20:34:08.309Z,3.10
2018-08-22T20:36:46.896Z,2.83
2018-08-22T20:39:21.928Z,2.83
2018-08-22T20:42:00.551Z,2.40
2018-08-22T20:44:35.746Z,2.80
2018-08-22T20:47:10.923Z,3.47
2018-08-22T20:49:46.376Z,3.23
2018-08-22T20:52:21.360Z,3.40
2018-08-22T20:55:01.419Z,3.53
2018-08-22T20:57:36.353Z,3.40
2018-08-22T21:00:11.253Z,3.23
2018-08-22T21:02:46.453Z,2.93
2018-08-22T21:05:21.368Z,3.47
2018-08-22T21:07:56.415Z,3.30
2018-08-22T21:10:31.507Z,3.10
2018-08-22T21:13:13.517Z,2.70
2018-08-22T21:15:48.528Z,3.10
2018-08-22T21:18:23.512Z,2.40
2018-08-22T21:20:58.234Z,2.57
2018-08-22T21:23:33.067Z,2.67
2018-08-22T21:26:07.788Z,2.73
2018-08-22T21:28:43.225Z,2.87
2018-08-22T21:31:17.851Z,3.40
2018-08-22T21:33:52.844Z,3.13
2018-08-22T21:36:27.539Z,3.17
2018-08-22T21:39:04.080Z,2.87
2018-08-22T21:41:39.147Z,3.07
2018-08-22T21:44:16.372Z,2.93
2018-08-22T21:46:58.364Z,3.00
2018-08-22T21:49:33.353Z,3.27
2018-08-22T21:52:08.548Z,3.13
2018-08-22T21:54:43.530Z,3.40
2018-08-22T21:57:18.740Z,2.87
2018-08-22T21:59:58.779Z,3.40
2018-08-22T22:02:33.978Z,3.20
2018-08-22T22:05:09.065Z,2.77
2018-08-22T22:07:44.240Z,3.50
2018-08-22T22:10:19.576Z,2.90
2018-08-22T22:12:54.683Z,3.20
2018-08-22T22:15:34.712Z,3.13
2018-08-22T22:18:10.007Z,3.13
2018-08-22T22:20:49.081Z,3.23
2018-08-22T22:23:24.142Z,2.93
2018-08-22T22:25:59.744Z,3.10
2018-08-22T22:28:39.336Z,2.77
2018-08-22T22:31:17.285Z,3.60
2018-08-22T22:34:07.397Z,3.03
2018-08-22T22:36:42.140Z,3.40
2018-08-22T22:39:34.024Z,4.43
2018-08-22T22:42:14.965Z,5.20
2018-08-22T22:44:50.938Z,7.47
2018-08-22T22:47:27.132Z,8.67
2018-08-22T22:50:02.864Z,7.80
2018-08-22T22:52:39.612Z,7.33
2018-08-22T22:55:15.040Z,7.90
2018-08-22T22:57:50.242Z,6.90
2018-08-22T23:00:25.627Z,7.90
2018-08-22T23:03:06.456Z,8.50
2018-08-22T23:05:41.571Z,9.63
2018-08-22T23:08:16.828Z,9.70
2018-08-22T23:10:51.901Z,8.60
2018-08-22T23:13:28.374Z,9.00
2018-08-22T23:16:03.340Z,7.73
2018-08-22T23:18:38.379Z,7.37
2018-08-22T23:21:13.242Z,8.30
2018-08-22T23:23:48.041Z,7.90
2018-08-22T23:26:22.948Z,7.27
2018-08-22T23:28:57.789Z,6.80
2018-08-22T23:31:32.509Z,6.60
2018-08-22T23:34:07.484Z,5.80
2018-08-22T23:36:46.455Z,5.77
2018-08-22T23:39:33.051Z,6.50
2018-08-22T23:42:08.980Z,7.40
2018-08-22T23:44:44.923Z,7.67
2018-08-22T23:47:19.796Z,8.63
2018-08-22T23:49:54.589Z,8.03
2018-08-22T23:52:34.480Z,6.87
2018-08-22T23:55:09.624Z,6.13
2018-08-22T23:57:44.488Z,6.60
